Observation data for Plains on 05/24/2020      Previous  Date  Next       Current Mesonet Observations  Soil Data  Daily Summary Page  Observations in Plain Language
KPPS 240500Z 14010KT 20/11 A2987 RMK A01 T02030112  RH  058%=      5-min Rain = 0
KPPS 240505Z 14010KT 20/11 A2987 RMK A01 T01970110  RH  059%=      5-min Rain = 0
KPPS 240510Z 14010KT 19/11 A2987 RMK A01 T01930111  RH  061%=      5-min Rain = 0
KPPS 240515Z 15011KT 19/11 A2987 RMK A01 T01940112  RH  061%=      5-min Rain = 0
KPPS 240520Z 16013KT 20/12 A2987 RMK A01 T02040115  RH  059%=      5-min Rain = 0
KPPS 240525Z 16013KT 21/12 A2987 RMK A01 T02090117  RH  058%=      5-min Rain = 0
KPPS 240530Z 15012KT 21/12 A2987 RMK A01 T02100116  RH  057%=      5-min Rain = 0
KPPS 240535Z 15011KT 20/11 A2987 RMK A01 T01980113  RH  060%=      5-min Rain = 0
KPPS 240540Z 14011KT 20/11 A2988 RMK A01 T01970114  RH  061%=      5-min Rain = 0
KPPS 240545Z 13011KT 19/11 A2988 RMK A01 T01850113  RH  065%=      5-min Rain = 0
KPPS 240550Z 14010KT 18/11 A2988 RMK A01 T01810114  RH  067%=      5-min Rain = 0
KPPS 240555Z 14009KT 18/11 A2988 RMK A01 T01780113  RH  068%=      5-min Rain = 0
KPPS 240600Z 14009KT 18/11 A2988 RMK A01 T01750113  RH  069%=      5-min Rain = 0
KPPS 240605Z 14008KT 17/11 A2988 RMK A01 T01740113  RH  070%=      5-min Rain = 0
KPPS 240610Z 15008KT 17/11 A2988 RMK A01 T01730112  RH  070%=      5-min Rain = 0
KPPS 240615Z 14008KT 17/11 A2988 RMK A01 T01720111  RH  070%=      5-min Rain = 0
KPPS 240620Z 14009KT 17/11 A2988 RMK A01 T01720111  RH  070%=      5-min Rain = 0
KPPS 240625Z 15009KT 18/11 A2988 RMK A01 T01750111  RH  068%=      5-min Rain = 0
KPPS 240630Z 15010KT 18/11 A2988 RMK A01 T01780110  RH  066%=      5-min Rain = 0
KPPS 240635Z 15012KT 18/11 A2987 RMK A01 T01840110  RH  064%=      5-min Rain = 0
KPPS 240640Z 14011KT 19/11 A2987 RMK A01 T01850109  RH  063%=      5-min Rain = 0
KPPS 240645Z 15012KT 18/11 A2987 RMK A01 T01830108  RH  064%=      5-min Rain = 0
KPPS 240650Z 16014G20KT 19/11 A2987 RMK A01 T01910111  RH  062%=      5-min Rain = 0
KPPS 240655Z 16013G19KT 19/11 A2987 RMK A01 T01930110  RH  061%=      5-min Rain = 0
KPPS 240700Z 15014KT 19/11 A2986 RMK A01 T01940110  RH  060%=      5-min Rain = 0
KPPS 240705Z 15013KT 19/11 A2987 RMK A01 T01920109  RH  061%=      5-min Rain = 0
KPPS 240710Z 15013KT 19/11 A2987 RMK A01 T01910108  RH  061%=      5-min Rain = 0
KPPS 240715Z 15013G18KT 19/11 A2986 RMK A01 T01910107  RH  060%=      5-min Rain = 0
KPPS 240720Z 15013KT 19/11 A2986 RMK A01 T01910107  RH  060%=      5-min Rain = 0
KPPS 240725Z 15014KT 19/11 A2986 RMK A01 T01920106  RH  060%=      5-min Rain = 0
KPPS 240730Z 15013KT 19/11 A2986 RMK A01 T01940107  RH  059%=      5-min Rain = 0
KPPS 240735Z 15012G17KT 19/11 A2986 RMK A01 T01940109  RH  060%=      5-min Rain = 0
KPPS 240740Z 15012KT 19/11 A2986 RMK A01 T01920110  RH  061%=      5-min Rain = 0
KPPS 240745Z 14012KT 19/11 A2986 RMK A01 T01900111  RH  062%=      5-min Rain = 0
KPPS 240750Z 13012KT 19/11 A2986 RMK A01 T01870110  RH  063%=      5-min Rain = 0
KPPS 240755Z 14014KT 18/11 A2986 RMK A01 T01830111  RH  065%=      5-min Rain = 0
KPPS 240800Z 14013KT 18/11 A2986 RMK A01 T01790114  RH  068%=      5-min Rain = 0
KPPS 240805Z 13014KT 18/12 A2986 RMK A01 T01770116  RH  070%=      5-min Rain = 0
KPPS 240810Z 14014G19KT 18/12 A2986 RMK A01 T01750117  RH  071%=      5-min Rain = 0
KPPS 240815Z 14013KT 17/12 A2986 RMK A01 T01740117  RH  072%=      5-min Rain = 0
KPPS 240820Z 14013KT 17/12 A2986 RMK A01 T01730117  RH  073%=      5-min Rain = 0
KPPS 240825Z 14013KT 17/12 A2986 RMK A01 T01720117  RH  073%=      5-min Rain = 0
KPPS 240830Z 14013KT 17/12 A2986 RMK A01 T01710117  RH  073%=      5-min Rain = 0
KPPS 240835Z 14012KT 17/12 A2986 RMK A01 T01700117  RH  073%=      5-min Rain = 0
KPPS 240840Z 14012KT 17/12 A2986 RMK A01 T01690116  RH  074%=      5-min Rain = 0
KPPS 240845Z 14011KT 17/12 A2986 RMK A01 T01680116  RH  074%=      5-min Rain = 0
KPPS 240850Z 14011KT 17/12 A2987 RMK A01 T01670116  RH  074%=      5-min Rain = 0
KPPS 240855Z 14011G16KT 17/12 A2987 RMK A01 T01670116  RH  074%=      5-min Rain = 0
KPPS 240900Z 14013KT 17/12 A2987 RMK A01 T01670115  RH  074%=      5-min Rain = 0
KPPS 240905Z 15012KT 17/12 A2987 RMK A01 T01670116  RH  075%=      5-min Rain = 0
KPPS 240910Z 14011KT 17/12 A2987 RMK A01 T01650115  RH  075%=      5-min Rain = 0
KPPS 240915Z 15012KT 16/12 A2987 RMK A01 T01640115  RH  075%=      5-min Rain = 0
KPPS 240920Z 15011KT 16/12 A2987 RMK A01 T01630115  RH  076%=      5-min Rain = 0
KPPS 240925Z 15011KT 16/12 A2987 RMK A01 T01630115  RH  076%=      5-min Rain = 0
KPPS 240930Z 15012KT 16/12 A2987 RMK A01 T01630115  RH  076%=      5-min Rain = 0
KPPS 240935Z 15011KT 16/12 A2987 RMK A01 T01630116  RH  076%=      5-min Rain = 0
KPPS 240940Z 15011KT 16/12 A2986 RMK A01 T01620115  RH  076%=      5-min Rain = 0
KPPS 240945Z 16011KT 16/12 A2986 RMK A01 T01620115  RH  077%=      5-min Rain = 0
KPPS 240950Z 15011KT 16/12 A2986 RMK A01 T01610115  RH  077%=      5-min Rain = 0
KPPS 240955Z 15011KT 16/11 A2986 RMK A01 T01600114  RH  077%=      5-min Rain = 0
KPPS 241000Z 15010KT 16/11 A2986 RMK A01 T01590114  RH  077%=      5-min Rain = 0
KPPS 241005Z 16010KT 16/11 A2986 RMK A01 T01580114  RH  078%=      5-min Rain = 0
KPPS 241010Z 16009KT 16/11 A2986 RMK A01 T01570113  RH  078%=      5-min Rain = 0
KPPS 241015Z 16009KT 16/11 A2986 RMK A01 T01570113  RH  078%=      5-min Rain = 0
KPPS 241020Z 16008KT 16/11 A2986 RMK A01 T01570113  RH  078%=      5-min Rain = 0
KPPS 241025Z 16008KT 16/11 A2986 RMK A01 T01570113  RH  078%=      5-min Rain = 0
KPPS 241030Z 16007KT 16/11 A2986 RMK A01 T01570113  RH  078%=      5-min Rain = 0
KPPS 241035Z 15007KT 16/11 A2986 RMK A01 T01580113  RH  078%=      5-min Rain = 0
KPPS 241040Z 13005KT 16/11 A2986 RMK A01 T01560112  RH  078%=      5-min Rain = 0
KPPS 241045Z 13005KT 15/11 A2986 RMK A01 T01500110  RH  080%=      5-min Rain = 0
KPPS 241050Z 14006KT 15/11 A2986 RMK A01 T01480110  RH  081%=      5-min Rain = 0
KPPS 241055Z 15006KT 15/11 A2986 RMK A01 T01460110  RH  082%=      5-min Rain = 0
KPPS 241100Z 15006KT 15/11 A2987 RMK A01 T01470111  RH  082%=      5-min Rain = 0
KPPS 241105Z 14005KT 15/11 A2987 RMK A01 T01460110  RH  082%=      5-min Rain = 0
KPPS 241110Z 13005KT 14/11 A2987 RMK A01 T01430108  RH  083%=      5-min Rain = 0
KPPS 241115Z 13005KT 14/11 A2987 RMK A01 T01400107  RH  084%=      5-min Rain = 0
KPPS 241120Z 13005KT 14/11 A2987 RMK A01 T01390108  RH  084%=      5-min Rain = 0
KPPS 241125Z 12006KT 14/11 A2987 RMK A01 T01380108  RH  085%=      5-min Rain = 0
KPPS 241130Z 10006KT 14/11 A2987 RMK A01 T01390109  RH  085%=      5-min Rain = 0
KPPS 241135Z 10007KT 14/11 A2987 RMK A01 T01380109  RH  085%=      5-min Rain = 0
KPPS 241140Z 11007KT 14/11 A2987 RMK A01 T01380110  RH  086%=      5-min Rain = 0
KPPS 241145Z 11006KT 14/11 A2987 RMK A01 T01390110  RH  086%=      5-min Rain = 0
KPPS 241150Z 12007KT 14/11 A2987 RMK A01 T01360108  RH  086%=      5-min Rain = 0
KPPS 241155Z 12006KT 13/11 A2987 RMK A01 T01330107  RH  087%=      5-min Rain = 0
KPPS 241200Z 13006KT 13/11 A2987 RMK A01 T01320108  RH  088%=      5-min Rain = 0
KPPS 241205Z 13006KT 13/11 A2987 RMK A01 T01330108  RH  088%=      5-min Rain = 0
KPPS 241210Z 13007KT 14/11 A2987 RMK A01 T01360110  RH  087%=      5-min Rain = 0
KPPS 241215Z 13007KT 14/11 A2987 RMK A01 T01390111  RH  086%=      5-min Rain = 0
KPPS 241220Z 13007KT 14/11 A2987 RMK A01 T01420113  RH  085%=      5-min Rain = 0
KPPS 241225Z 13007KT 15/11 A2987 RMK A01 T01450113  RH  084%=      5-min Rain = 0
KPPS 241230Z 14007KT 15/11 A2987 RMK A01 T01480114  RH  083%=      5-min Rain = 0
KPPS 241235Z 15007KT 15/11 A2987 RMK A01 T01500114  RH  082%=      5-min Rain = 0
KPPS 241240Z 15008KT 15/11 A2987 RMK A01 T01520114  RH  081%=      5-min Rain = 0
KPPS 241245Z 15008KT 15/11 A2987 RMK A01 T01540114  RH  080%=      5-min Rain = 0
KPPS 241250Z 15007KT 16/12 A2988 RMK A01 T01570115  RH  079%=      5-min Rain = 0
KPPS 241255Z 18005KT 16/12 A2988 RMK A01 T01610116  RH  078%=      5-min Rain = 0
KPPS 241300Z 17006KT 16/12 A2988 RMK A01 T01640117  RH  076%=      5-min Rain = 0
KPPS 241305Z 16008KT 17/12 A2988 RMK A01 T01690118  RH  075%=      5-min Rain = 0
KPPS 241310Z 18007KT 17/12 A2988 RMK A01 T01740118  RH  073%=      5-min Rain = 0
KPPS 241315Z 18007KT 18/12 A2988 RMK A01 T01750119  RH  072%=      5-min Rain = 0
KPPS 241320Z 18008KT 18/12 A2988 RMK A01 T01800120  RH  071%=      5-min Rain = 0
KPPS 241325Z 17008KT 18/12 A2988 RMK A01 T01840122  RH  070%=      5-min Rain = 0
KPPS 241330Z 18010KT 19/12 A2988 RMK A01 T01890123  RH  068%=      5-min Rain = 0
KPPS 241335Z 18011KT 19/12 A2988 RMK A01 T01920124  RH  067%=      5-min Rain = 0
KPPS 241340Z 17011KT 19/12 A2988 RMK A01 T01910124  RH  068%=      5-min Rain = 0
KPPS 241345Z 19011KT 19/12 A2988 RMK A01 T01890124  RH  068%=      5-min Rain = 0
KPPS 241350Z 19010KT 19/13 A2988 RMK A01 T01910125  RH  068%=      5-min Rain = 0
KPPS 241355Z 18011KT 20/13 A2988 RMK A01 T01980126  RH  066%=      5-min Rain = 0
KPPS 241400Z 19011KT 20/13 A2987 RMK A01 T02010127  RH  065%=      5-min Rain = 0
KPPS 241405Z 20010KT 20/13 A2987 RMK A01 T02010127  RH  065%=      5-min Rain = 0
KPPS 241410Z 20011KT 20/13 A2987 RMK A01 T02040128  RH  064%=      5-min Rain = 0
KPPS 241415Z 19010KT 21/13 A2987 RMK A01 T02060128  RH  063%=      5-min Rain = 0
KPPS 241420Z 19011KT 21/13 A2987 RMK A01 T02090129  RH  062%=      5-min Rain = 0
KPPS 241425Z 19010KT 21/13 A2987 RMK A01 T02080129  RH  063%=      5-min Rain = 0
KPPS 241430Z 20009KT 21/13 A2987 RMK A01 T02110130  RH  062%=      5-min Rain = 0
KPPS 241435Z 19011KT 21/13 A2987 RMK A01 T02120129  RH  061%=      5-min Rain = 0
KPPS 241440Z 20010KT 21/13 A2987 RMK A01 T02130129  RH  061%=      5-min Rain = 0
KPPS 241445Z 20009KT 22/13 A2987 RMK A01 T02170130  RH  060%=      5-min Rain = 0
KPPS 241450Z 21010G15KT 22/13 A2987 RMK A01 T02170130  RH  060%=      5-min Rain = 0
KPPS 241455Z 21011KT 22/13 A2987 RMK A01 T02180129  RH  059%=      5-min Rain = 0
KPPS 241500Z 21011KT 22/13 A2987 RMK A01 T02200129  RH  059%=      5-min Rain = 0
KPPS 241505Z 22010KT 22/13 A2987 RMK A01 T02220130  RH  058%=      5-min Rain = 0
KPPS 241510Z 23010KT 23/13 A2986 RMK A01 T02290129  RH  055%=      5-min Rain = 0
KPPS 241515Z 23010KT 23/13 A2986 RMK A01 T02310126  RH  054%=      5-min Rain = 0
KPPS 241520Z 24009KT 23/13 A2986 RMK A01 T02330126  RH  053%=      5-min Rain = 0
KPPS 241525Z 23009KT 24/13 A2986 RMK A01 T02350127  RH  053%=      5-min Rain = 0
KPPS 241530Z 23009KT 24/13 A2986 RMK A01 T02380127  RH  052%=      5-min Rain = 0
KPPS 241535Z 23008KT 24/12 A2986 RMK A01 T02400123  RH  050%=      5-min Rain = 0
KPPS 241540Z 24008KT 24/12 A2986 RMK A01 T02430123  RH  049%=      5-min Rain = 0
KPPS 241545Z 24006KT 24/12 A2986 RMK A01 T02440121  RH  048%=      5-min Rain = 0
KPPS 241550Z 22004KT 25/12 A2986 RMK A01 T02460119  RH  047%=      5-min Rain = 0
KPPS 241555Z 21005KT 25/12 A2986 RMK A01 T02490120  RH  046%=      5-min Rain = 0
KPPS 241600Z 19004KT 25/12 A2986 RMK A01 T02530118  RH  044%=      5-min Rain = 0
KPPS 241605Z 18002KT 25/12 A2986 RMK A01 T02540117  RH  044%=      5-min Rain = 0
KPPS 241610Z 19004KT 26/11 A2986 RMK A01 T02580113  RH  042%=      5-min Rain = 0
KPPS 241615Z 26005KT 26/11 A2986 RMK A01 T02590110  RH  041%=      5-min Rain = 0
KPPS 241620Z 27005KT 26/11 A2986 RMK A01 T02590107  RH  040%=      5-min Rain = 0
KPPS 241625Z 32004KT 26/10 A2985 RMK A01 T02630101  RH  037%=      5-min Rain = 0
KPPS 241630Z 26006KT 27/11 A2986 RMK A01 T02660109  RH  039%=      5-min Rain = 0
KPPS 241635Z 30003KT 27/10 A2985 RMK A01 T02700104  RH  037%=      5-min Rain = 0
KPPS 241640Z 28004KT 27/10 A2985 RMK A01 T02720099  RH  035%=      5-min Rain = 0
KPPS 241645Z 33002KT 28/10 A2985 RMK A01 T02750097  RH  034%=      5-min Rain = 0
KPPS 241650Z 23004KT 28/10 A2985 RMK A01 T02790099  RH  033%=      5-min Rain = 0
KPPS 241655Z 25005KT 28/10 A2986 RMK A01 T02820095  RH  032%=      5-min Rain = 0
KPPS 241700Z 27002KT 28/10 A2986 RMK A01 T02810095  RH  032%=      5-min Rain = 0
KPPS 241705Z 29004KT 28/10 A2985 RMK A01 T02800096  RH  033%=      5-min Rain = 0
KPPS 241710Z 22005KT 28/09 A2985 RMK A01 T02840094  RH  031%=      5-min Rain = 0
KPPS 241715Z 24006KT 29/08 A2985 RMK A01 T02850084  RH  029%=      5-min Rain = 0
KPPS 241720Z 22003KT 28/08 A2985 RMK A01 T02830075  RH  028%=      5-min Rain = 0
KPPS 241725Z 21004KT 29/07 A2985 RMK A01 T02860070  RH  026%=      5-min Rain = 0
KPPS 241730Z 24003G8KT 30/08 A2985 RMK A01 T02960077  RH  026%=      5-min Rain = 0
KPPS 241735Z 24003KT 29/08 A2985 RMK A01 T02910077  RH  027%=      5-min Rain = 0
KPPS 241740Z 24005KT 30/07 A2984 RMK A01 T02950070  RH  025%=      5-min Rain = 0
KPPS 241745Z 27003KT 29/06 A2984 RMK A01 T02940063  RH  024%=      5-min Rain = 0
KPPS 241750Z 34004KT 30/06 A2984 RMK A01 T02990057  RH  022%=      5-min Rain = 0
KPPS 241755Z 00003G11KT 30/06 A2984 RMK A01 T03000064  RH  023%=      5-min Rain = 0
KPPS 241800Z 26003KT 31/06 A2984 RMK A01 T03070058  RH  021%=      5-min Rain = 0
KPPS 241805Z 23005G11KT 30/05 A2984 RMK A01 T03030047  RH  020%=      5-min Rain = 0
KPPS 241810Z 18004KT 31/04 A2983 RMK A01 T03060043  RH  019%=      5-min Rain = 0
KPPS 241815Z 22005KT 31/05 A2983 RMK A01 T03090048  RH  020%=      5-min Rain = 0
KPPS 241820Z 25002KT 31/05 A2983 RMK A01 T03070049  RH  020%=      5-min Rain = 0
KPPS 241825Z 28008G13KT 31/05 A2983 RMK A01 T03110045  RH  019%=      5-min Rain = 0
KPPS 241830Z 30003G9KT 31/04 A2982 RMK A01 T03100041  RH  019%=      5-min Rain = 0
KPPS 241835Z 28006G12KT 31/04 A2982 RMK A01 T03140043  RH  018%=      5-min Rain = 0
KPPS 241840Z 26009KT 32/02 A2982 RMK A01 T03160021  RH  016%=      5-min Rain = 0
KPPS 241845Z 24007G12KT 31/01 A2982 RMK A01 T03130012  RH  015%=      5-min Rain = 0
KPPS 241850Z 22004KT 31/02 A2981 RMK A01 T03140016  RH  015%=      5-min Rain = 0
KPPS 241855Z 24008G13KT 31/02 A2982 RMK A01 T03140019  RH  015%=      5-min Rain = 0
KPPS 241900Z 24007G14KT 31/02 A2981 RMK A01 T03130017  RH  015%=      5-min Rain = 0
KPPS 241905Z 25006KT 31/02 A2981 RMK A01 T03120019  RH  016%=      5-min Rain = 0
KPPS 241910Z 30005KT 32/02 A2981 RMK A01 T03180022  RH  015%=      5-min Rain = 0
KPPS 241915Z 25004G9KT 32/02 A2981 RMK A01 T03170017  RH  015%=      5-min Rain = 0
KPPS 241920Z 19008KT 32/01 A2981 RMK A01 T03170008  RH  014%=      5-min Rain = 0
KPPS 241925Z 16006KT 32/01 A298 RMK A01 T03210010  RH  014%=      5-min Rain = 0
KPPS 241930Z 16007KT 32/01 A298 RMK A01 T03170010  RH  014%=      5-min Rain = 0
KPPS 241935Z 16009G14KT 32/01 A298 RMK A01 T03190009  RH  014%=      5-min Rain = 0
KPPS 241940Z 16006KT 32/01 A298 RMK A01 T03200008  RH  014%=      5-min Rain = 0
KPPS 241945Z 20005KT 32/01 A2979 RMK A01 T03220008  RH  014%=      5-min Rain = 0
KPPS 241950Z 18004G9KT 32/00 A2979 RMK A01 T03160004  RH  014%=      5-min Rain = 0
KPPS 241955Z 20008G16KT 32/01 A2979 RMK A01 T03240011  RH  014%=      5-min Rain = 0
KPPS 242000Z 21006G12KT 32/00 A2979 RMK A01 T03170004  RH  014%=      5-min Rain = 0
KPPS 242005Z 25009G16KT 32/00 A2979 RMK A01 T03220001  RH  013%=      5-min Rain = 0
KPPS 242010Z 26009KT 32/00 A2979 RMK A01 T032100-0  RH  013%=      5-min Rain = 0
KPPS 242015Z 35004G9KT 32/00 A2978 RMK A01 T032100-0  RH  013%=      5-min Rain = 0
KPPS 242020Z 33004G10KT 32/M00 A2978 RMK A01 T03221001  RH  013%=      5-min Rain = 0
KPPS 242025Z 14007G12KT 32/M01 A2977 RMK A01 T03241010  RH  012%=      5-min Rain = 0
KPPS 242030Z 23008KT 33/M01 A2977 RMK A01 T03281007  RH  012%=      5-min Rain = 0
KPPS 242035Z 19012G21KT 33/M01 A2977 RMK A01 T03291011  RH  011%=      5-min Rain = 0
KPPS 242040Z 21011G18KT 32/M01 A2977 RMK A01 T03201011  RH  012%=      5-min Rain = 0
KPPS 242045Z 21009KT 32/M01 A2977 RMK A01 T03231006  RH  012%=      5-min Rain = 0
KPPS 242050Z 20009G24KT 33/M01 A2976 RMK A01 T03271011  RH  012%=      5-min Rain = 0
KPPS 242055Z 20007G13KT 33/M01 A2976 RMK A01 T03301013  RH  011%=      5-min Rain = 0
KPPS 242100Z 18009G14KT 33/M02 A2975 RMK A01 T03261015  RH  011%=      5-min Rain = 0
KPPS 242105Z 18009KT 32/M02 A2975 RMK A01 T03201015  RH  012%=      5-min Rain = 0
KPPS 242110Z 18005KT 33/M01 A2975 RMK A01 T03291013  RH  011%=      5-min Rain = 0
KPPS 242115Z 14005KT 33/M01 A2975 RMK A01 T03321012  RH  011%=      5-min Rain = 0
KPPS 242120Z 15003KT 33/M02 A2974 RMK A01 T03281015  RH  011%=      5-min Rain = 0
KPPS 242125Z 23008G13KT 33/M02 A2974 RMK A01 T03301018  RH  011%=      5-min Rain = 0
KPPS 242130Z 23011KT 33/M02 A2974 RMK A01 T03281020  RH  011%=      5-min Rain = 0
KPPS 242135Z 23009KT 33/M02 A2973 RMK A01 T03281021  RH  011%=      5-min Rain = 0
KPPS 242140Z 26010KT 33/M03 A2973 RMK A01 T03251025  RH  011%=      5-min Rain = 0
KPPS 242145Z 26010KT 32/M02 A2973 RMK A01 T03221024  RH  011%=      5-min Rain = 0
KPPS 242150Z 28010KT 33/M02 A2972 RMK A01 T03341024  RH  010%=      5-min Rain = 0
KPPS 242155Z 26008KT 33/M03 A2972 RMK A01 T03261026  RH  010%=      5-min Rain = 0
KPPS 242200Z 25006KT 32/M03 A2971 RMK A01 T03211029  RH  010%=      5-min Rain = 0
KPPS 242205Z 22013G20KT 32/M03 A2972 RMK A01 T03201027  RH  011%=      5-min Rain = 0
KPPS 242210Z 25017G31KT 32/M05 A2971 RMK A01 T03181050  RH  009%=      5-min Rain = 0
KPPS 242215Z 18009G15KT 32/M05 A2971 RMK A01 T03211050  RH  009%=      5-min Rain = 0
KPPS 242220Z 18005KT 32/M05 A2971 RMK A01 T03241046  RH  009%=      5-min Rain = 0
KPPS 242225Z 18008G14KT 32/M04 A297 RMK A01 T03221041  RH  009%=      5-min Rain = 0
KPPS 242230Z 20009KT 32/M04 A297 RMK A01 T03171037  RH  010%=      5-min Rain = 0
KPPS 242235Z 21007KT 31/M04 A297 RMK A01 T03141037  RH  010%=      5-min Rain = 0
KPPS 242240Z 18007KT 32/M04 A2969 RMK A01 T03191036  RH  010%=      5-min Rain = 0
KPPS 242245Z 16008KT 33/M04 A2969 RMK A01 T03261036  RH  010%=      5-min Rain = 0
KPPS 242250Z 17007KT 33/M04 A2969 RMK A01 T03301035  RH  009%=      5-min Rain = 0
KPPS 242255Z 18007G13KT 32/M04 A2969 RMK A01 T03211037  RH  010%=      5-min Rain = 0
KPPS 242300Z 22009G14KT 32/M04 A2969 RMK A01 T03181040  RH  010%=      5-min Rain = 0
KPPS 242305Z 22008KT 32/M04 A2969 RMK A01 T03151043  RH  010%=      5-min Rain = 0
KPPS 242310Z 24008KT 32/M04 A2969 RMK A01 T03171041  RH  010%=      5-min Rain = 0
KPPS 242315Z 23012G20KT 33/M04 A2968 RMK A01 T03291036  RH  009%=      5-min Rain = 0
KPPS 242320Z 22015KT 33/M04 A2968 RMK A01 T03291036  RH  009%=      5-min Rain = 0
KPPS 242325Z 22012G18KT 33/M04 A2968 RMK A01 T03271035  RH  010%=      5-min Rain = 0
KPPS 242330Z 20011G17KT 33/M04 A2968 RMK A01 T03291035  RH  010%=      5-min Rain = 0
KPPS 242335Z 20006G16KT 33/M04 A2967 RMK A01 T03311035  RH  009%=      5-min Rain = 0
KPPS 242340Z 23011G19KT 33/M04 A2967 RMK A01 T03261038  RH  009%=      5-min Rain = 0
KPPS 242345Z 25013KT 32/M04 A2967 RMK A01 T03241043  RH  009%=      5-min Rain = 0
KPPS 242350Z 23013G19KT 32/M04 A2967 RMK A01 T03221041  RH  009%=      5-min Rain = 0
KPPS 242355Z 22010KT 32/M04 A2967 RMK A01 T03221039  RH  010%=      5-min Rain = 0
KPPS 250000Z 23008G14KT 32/M04 A2967 RMK A01 T03241043  RH  009%=      5-min Rain = 0
KPPS 250005Z 26010KT 33/M05 A2968 RMK A01 T03271049  RH  009%=      5-min Rain = 0
KPPS 250010Z 24009KT 32/M05 A2968 RMK A01 T03221051  RH  009%=      5-min Rain = 0
KPPS 250015Z 23008KT 32/M05 A2968 RMK A01 T03191045  RH  009%=      5-min Rain = 0
KPPS 250020Z 24012G17KT 32/M05 A2968 RMK A01 T03171046  RH  009%=      5-min Rain = 0
KPPS 250025Z 24013G18KT 32/M05 A2968 RMK A01 T03151046  RH  009%=      5-min Rain = 0
KPPS 250030Z 25012KT 32/M05 A2968 RMK A01 T03161046  RH  009%=      5-min Rain = 0
KPPS 250035Z 25010KT 32/M05 A2968 RMK A01 T03191047  RH  009%=      5-min Rain = 0
KPPS 250040Z 27011G16KT 32/M05 A2968 RMK A01 T03211049  RH  009%=      5-min Rain = 0
KPPS 250045Z 28011KT 32/M05 A2968 RMK A01 T03201053  RH  009%=      5-min Rain = 0
KPPS 250050Z 27011KT 32/M05 A2968 RMK A01 T03201054  RH  009%=      5-min Rain = 0
KPPS 250055Z 27014KT 32/M05 A2968 RMK A01 T03191054  RH  009%=      5-min Rain = 0
KPPS 250100Z 27012G17KT 32/M05 A2967 RMK A01 T03191052  RH  009%=      5-min Rain = 0
KPPS 250105Z 25012G18KT 32/M05 A2967 RMK A01 T03171053  RH  009%=      5-min Rain = 0
KPPS 250110Z 26011G17KT 32/M06 A2967 RMK A01 T03151055  RH  009%=      5-min Rain = 0
KPPS 250115Z 27012G17KT 31/M05 A2966 RMK A01 T03141054  RH  009%=      5-min Rain = 0
KPPS 250120Z 26010KT 31/M05 A2966 RMK A01 T03111051  RH  009%=      5-min Rain = 0
KPPS 250125Z 27012G17KT 31/M05 A2967 RMK A01 T03091053  RH  009%=      5-min Rain = 0
KPPS 250130Z 27009KT 31/M05 A2967 RMK A01 T03071053  RH  009%=      5-min Rain = 0
KPPS 250135Z 24007KT 30/M05 A2968 RMK A01 T03041052  RH  010%=      5-min Rain = 0
KPPS 250140Z 15013G19KT 29/03 A2969 RMK A01 T02880025  RH  019%=      5-min Rain = 0
KPPS 250145Z 15012G17KT 27/05 A297 RMK A01 T02700046  RH  024%=      5-min Rain = 0
KPPS 250150Z 14014KT 27/04 A297 RMK A01 T02660042  RH  024%=      5-min Rain = 0
KPPS 250155Z 14017G22KT 26/04 A297 RMK A01 T02620042  RH  025%=      5-min Rain = 0
KPPS 250200Z 14018G23KT 26/04 A297 RMK A01 T02600044  RH  025%=      5-min Rain = 0
KPPS 250205Z 12015KT 26/05 A2971 RMK A01 T02570045  RH  026%=      5-min Rain = 0
KPPS 250210Z 11014G19KT 25/05 A2971 RMK A01 T02530048  RH  027%=      5-min Rain = 0
KPPS 250215Z 10012G17KT 25/06 A2972 RMK A01 T02510055  RH  029%=      5-min Rain = 0
KPPS 250220Z 10012G18KT 25/06 A2972 RMK A01 T02490060  RH  030%=      5-min Rain = 0
KPPS 250225Z 09012KT 25/06 A2973 RMK A01 T02470062  RH  031%=      5-min Rain = 0
KPPS 250230Z 08013KT 24/07 A2974 RMK A01 T02380073  RH  036%=      5-min Rain = 0
KPPS 250235Z 08014KT 23/08 A2974 RMK A01 T02330077  RH  038%=      5-min Rain = 0
KPPS 250240Z 07015G20KT 23/08 A2974 RMK A01 T02270076  RH  039%=      5-min Rain = 0
KPPS 250245Z 08014G19KT 22/07 A2974 RMK A01 T02230073  RH  039%=      5-min Rain = 0
KPPS 250250Z 09014KT 22/07 A2974 RMK A01 T02210074  RH  040%=      5-min Rain = 0
KPPS 250255Z 09015KT 22/07 A2974 RMK A01 T02200073  RH  040%=      5-min Rain = 0
KPPS 250300Z 09014G19KT 22/07 A2973 RMK A01 T02180072  RH  040%=      5-min Rain = 0
KPPS 250305Z 08011KT 22/07 A2973 RMK A01 T02150071  RH  040%=      5-min Rain = 0
KPPS 250310Z 09010KT 21/07 A2972 RMK A01 T02130068  RH  040%=      5-min Rain = 0
KPPS 250315Z 09011KT 21/07 A2972 RMK A01 T02120065  RH  039%=      5-min Rain = 0
KPPS 250320Z 09012KT 21/06 A2971 RMK A01 T02120063  RH  039%=      5-min Rain = 0
KPPS 250325Z 10011KT 21/06 A297 RMK A01 T02110063  RH  039%=      5-min Rain = 0
KPPS 250330Z 11011KT 21/06 A297 RMK A01 T02090064  RH  040%=      5-min Rain = 0
KPPS 250335Z 10010KT 21/06 A297 RMK A01 T02080064  RH  040%=      5-min Rain = 0
KPPS 250340Z 09011KT 21/07 A2971 RMK A01 T02050065  RH  041%=      5-min Rain = 0
KPPS 250345Z 09012KT 20/07 A2971 RMK A01 T02030067  RH  042%=      5-min Rain = 0
KPPS 250350Z 10013G18KT 20/07 A2971 RMK A01 T02000070  RH  044%=      5-min Rain = 0
KPPS 250355Z 10012KT 20/08 A2971 RMK A01 T01970076  RH  047%=      5-min Rain = 0
KPPS 250400Z 10011KT 20/08 A2971 RMK A01 T01960078  RH  048%=      5-min Rain = 0
KPPS 250405Z 11011KT 19/08 A2971 RMK A01 T01940080  RH  049%=      5-min Rain = 0
KPPS 250410Z 11011KT 19/08 A2971 RMK A01 T01920082  RH  050%=      5-min Rain = 0
KPPS 250415Z 10010KT 19/08 A2972 RMK A01 T01910084  RH  051%=      5-min Rain = 0
KPPS 250420Z 11009KT 19/09 A2972 RMK A01 T01890085  RH  053%=      5-min Rain = 0
KPPS 250425Z 11012G17KT 19/09 A2973 RMK A01 T01890089  RH  054%=      5-min Rain = 0
KPPS 250430Z 11016KT 19/09 A2975 RMK A01 T01890093  RH  055%=      5-min Rain = 0
KPPS 250435Z 12015KT 19/09 A2976 RMK A01 T01890094  RH  056%=      5-min Rain = 0
KPPS 250440Z 12015G20KT 19/09 A2976 RMK A01 T01900091  RH  054%=      5-min Rain = 0
KPPS 250445Z 13017G22KT 19/09 A2977 RMK A01 T01920087  RH  052%=      5-min Rain = 0
KPPS 250450Z 12019G25KT 19/09 A2978 RMK A01 T01930085  RH  051%=      5-min Rain = 0
KPPS 250455Z 12017G22KT 19/08 A2979 RMK A01 T01920082  RH  050%=      5-min Rain = 0

Page generated in 0.0161 seconds.